sensor_id;sensor_type;location;lat;lon;timestamp;temperature;humidity
18297;DHT22;18066;52.106;5.534;2023-11-19T00:02:04;13.90;99.90
18297;DHT22;18066;52.106;5.534;2023-11-19T00:04:32;13.90;99.90
18297;DHT22;18066;52.106;5.534;2023-11-19T00:07:00;13.90;99.90
18297;DHT22;18066;52.106;5.534;2023-11-19T00:09:29;13.90;99.90
18297;DHT22;18066;52.106;5.534;2023-11-19T00:11:57;13.90;99.90
18297;DHT22;18066;52.106;5.534;2023-11-19T00:14:27;13.90;99.90
18297;DHT22;18066;52.106;5.534;2023-11-19T00:16:54;13.90;99.90
18297;DHT22;18066;52.106;5.534;2023-11-19T00:19:21;13.90;99.90
18297;DHT22;18066;52.106;5.534;2023-11-19T00:21:48;13.90;99.90
18297;DHT22;18066;52.106;5.534;2023-11-19T00:24:15;13.90;99.90
18297;DHT22;18066;52.106;5.534;2023-11-19T00:26:43;13.80;99.90
18297;DHT22;18066;52.106;5.534;2023-11-19T00:29:10;13.80;99.90
18297;DHT22;18066;52.106;5.534;2023-11-19T00:31:40;13.80;99.90
18297;DHT22;18066;52.106;5.534;2023-11-19T00:34:07;13.80;99.90
18297;DHT22;18066;52.106;5.534;2023-11-19T00:36:34;13.80;99.90
18297;DHT22;18066;52.106;5.534;2023-11-19T00:39:01;13.90;99.90
18297;DHT22;18066;52.106;5.534;2023-11-19T00:41:28;13.90;99.90
18297;DHT22;18066;52.106;5.534;2023-11-19T00:43:54;13.80;99.90
18297;DHT22;18066;52.106;5.534;2023-11-19T00:46:21;13.90;99.90
18297;DHT22;18066;52.106;5.534;2023-11-19T00:48:50;13.90;99.90
18297;DHT22;18066;52.106;5.534;2023-11-19T00:51:16;13.90;99.90
18297;DHT22;18066;52.106;5.534;2023-11-19T00:53:44;13.80;99.90
18297;DHT22;18066;52.106;5.534;2023-11-19T00:56:11;13.90;99.90
18297;DHT22;18066;52.106;5.534;2023-11-19T00:58:38;13.90;99.90
18297;DHT22;18066;52.106;5.534;2023-11-19T01:01:05;13.90;99.90
18297;DHT22;18066;52.106;5.534;2023-11-19T01:03:32;13.90;99.90
18297;DHT22;18066;52.106;5.534;2023-11-19T01:06:01;13.80;99.90
18297;DHT22;18066;52.106;5.534;2023-11-19T01:08:28;13.80;99.90
18297;DHT22;18066;52.106;5.534;2023-11-19T01:10:55;13.90;99.90
18297;DHT22;18066;52.106;5.534;2023-11-19T01:13:21;13.80;99.90
18297;DHT22;18066;52.106;5.534;2023-11-19T01:15:48;13.80;99.90
18297;DHT22;18066;52.106;5.534;2023-11-19T01:18:15;13.80;99.90
18297;DHT22;18066;52.106;5.534;2023-11-19T01:20:42;13.80;99.90
18297;DHT22;18066;52.106;5.534;2023-11-19T01:23:11;13.80;99.90
18297;DHT22;18066;52.106;5.534;2023-11-19T01:25:37;13.80;99.90
18297;DHT22;18066;52.106;5.534;2023-11-19T01:28:04;13.90;99.90
18297;DHT22;18066;52.106;5.534;2023-11-19T01:30:31;13.80;99.90
18297;DHT22;18066;52.106;5.534;2023-11-19T01:32:58;13.90;99.90
18297;DHT22;18066;52.106;5.534;2023-11-19T01:35:25;13.90;99.90
18297;DHT22;18066;52.106;5.534;2023-11-19T01:37:53;13.90;99.90
18297;DHT22;18066;52.106;5.534;2023-11-19T01:40:22;13.90;99.90
18297;DHT22;18066;52.106;5.534;2023-11-19T01:42:49;13.90;99.90
18297;DHT22;18066;52.106;5.534;2023-11-19T01:45:22;13.90;99.90
18297;DHT22;18066;52.106;5.534;2023-11-19T01:47:53;13.90;99.90
18297;DHT22;18066;52.106;5.534;2023-11-19T01:50:20;13.80;99.90
18297;DHT22;18066;52.106;5.534;2023-11-19T01:52:48;13.90;99.90
18297;DHT22;18066;52.106;5.534;2023-11-19T01:55:15;13.90;99.90
18297;DHT22;18066;52.106;5.534;2023-11-19T01:57:44;13.80;99.90
18297;DHT22;18066;52.106;5.534;2023-11-19T02:00:12;13.80;99.90
18297;DHT22;18066;52.106;5.534;2023-11-19T02:02:39;13.80;99.90
18297;DHT22;18066;52.106;5.534;2023-11-19T02:05:06;13.80;99.90
18297;DHT22;18066;52.106;5.534;2023-11-19T02:07:33;13.80;99.90
18297;DHT22;18066;52.106;5.534;2023-11-19T02:10:00;13.80;99.90
18297;DHT22;18066;52.106;5.534;2023-11-19T02:12:27;13.80;99.90
18297;DHT22;18066;52.106;5.534;2023-11-19T02:14:56;13.80;99.90
18297;DHT22;18066;52.106;5.534;2023-11-19T02:17:27;13.80;99.90
18297;DHT22;18066;52.106;5.534;2023-11-19T02:19:56;13.70;99.90
18297;DHT22;18066;52.106;5.534;2023-11-19T02:22:23;13.70;99.90
18297;DHT22;18066;52.106;5.534;2023-11-19T02:24:55;13.60;99.90
18297;DHT22;18066;52.106;5.534;2023-11-19T02:27:38;13.60;99.90
18297;DHT22;18066;52.106;5.534;2023-11-19T02:30:06;13.60;99.90
18297;DHT22;18066;52.106;5.534;2023-11-19T02:32:34;13.50;99.90
18297;DHT22;18066;52.106;5.534;2023-11-19T02:35:01;13.40;99.90
18297;DHT22;18066;52.106;5.534;2023-11-19T02:37:27;13.40;99.90
18297;DHT22;18066;52.106;5.534;2023-11-19T02:39:54;13.30;99.90
18297;DHT22;18066;52.106;5.534;2023-11-19T02:42:21;13.30;99.90
18297;DHT22;18066;52.106;5.534;2023-11-19T02:44:50;13.30;99.90
18297;DHT22;18066;52.106;5.534;2023-11-19T02:47:17;13.20;99.90
18297;DHT22;18066;52.106;5.534;2023-11-19T02:49:47;13.20;99.90
18297;DHT22;18066;52.106;5.534;2023-11-19T02:52:13;13.20;99.90
18297;DHT22;18066;52.106;5.534;2023-11-19T02:54:41;13.10;99.90
18297;DHT22;18066;52.106;5.534;2023-11-19T02:57:08;13.10;99.90
18297;DHT22;18066;52.106;5.534;2023-11-19T02:59:38;13.10;99.90
18297;DHT22;18066;52.106;5.534;2023-11-19T03:02:08;13.10;99.90
18297;DHT22;18066;52.106;5.534;2023-11-19T03:04:37;13.10;99.90
18297;DHT22;18066;52.106;5.534;2023-11-19T03:07:05;13.10;99.90
18297;DHT22;18066;52.106;5.534;2023-11-19T03:09:32;13.10;99.90
18297;DHT22;18066;52.106;5.534;2023-11-19T03:12:00;13.10;99.90
18297;DHT22;18066;52.106;5.534;2023-11-19T03:14:27;13.00;99.90
18297;DHT22;18066;52.106;5.534;2023-11-19T03:16:54;12.90;99.90
18297;DHT22;18066;52.106;5.534;2023-11-19T03:19:22;13.00;99.90
18297;DHT22;18066;52.106;5.534;2023-11-19T03:21:49;12.90;99.90
18297;DHT22;18066;52.106;5.534;2023-11-19T03:24:16;12.80;99.90
18297;DHT22;18066;52.106;5.534;2023-11-19T03:26:48;12.80;99.90
18297;DHT22;18066;52.106;5.534;2023-11-19T03:29:15;12.70;99.90
18297;DHT22;18066;52.106;5.534;2023-11-19T03:31:42;12.70;99.90
18297;DHT22;18066;52.106;5.534;2023-11-19T03:34:10;12.70;99.90
18297;DHT22;18066;52.106;5.534;2023-11-19T03:36:38;12.60;99.90
18297;DHT22;18066;52.106;5.534;2023-11-19T03:39:05;12.60;99.90
18297;DHT22;18066;52.106;5.534;2023-11-19T03:41:32;12.50;99.90
18297;DHT22;18066;52.106;5.534;2023-11-19T03:43:59;12.50;99.90
18297;DHT22;18066;52.106;5.534;2023-11-19T03:46:25;12.50;99.90
18297;DHT22;18066;52.106;5.534;2023-11-19T03:48:52;12.50;99.90
18297;DHT22;18066;52.106;5.534;2023-11-19T03:51:19;12.50;99.90
18297;DHT22;18066;52.106;5.534;2023-11-19T03:53:48;12.40;99.90
18297;DHT22;18066;52.106;5.534;2023-11-19T03:56:14;12.40;99.90
18297;DHT22;18066;52.106;5.534;2023-11-19T03:58:42;12.40;99.90
18297;DHT22;18066;52.106;5.534;2023-11-19T04:01:11;12.30;99.90
18297;DHT22;18066;52.106;5.534;2023-11-19T04:03:38;12.30;99.90
18297;DHT22;18066;52.106;5.534;2023-11-19T04:06:06;12.30;99.90
18297;DHT22;18066;52.106;5.534;2023-11-19T04:08:33;12.30;99.90
18297;DHT22;18066;52.106;5.534;2023-11-19T04:11:03;12.30;99.90
18297;DHT22;18066;52.106;5.534;2023-11-19T04:13:30;12.30;99.90
18297;DHT22;18066;52.106;5.534;2023-11-19T04:15:57;12.30;99.90
18297;DHT22;18066;52.106;5.534;2023-11-19T04:18:24;12.30;99.90
18297;DHT22;18066;52.106;5.534;2023-11-19T04:20:51;12.20;99.90
18297;DHT22;18066;52.106;5.534;2023-11-19T04:23:20;12.10;99.90
18297;DHT22;18066;52.106;5.534;2023-11-19T04:25:47;12.30;99.90
18297;DHT22;18066;52.106;5.534;2023-11-19T04:28:15;12.10;99.90
18297;DHT22;18066;52.106;5.534;2023-11-19T04:30:44;12.20;99.90
18297;DHT22;18066;52.106;5.534;2023-11-19T04:33:11;12.10;99.90
18297;DHT22;18066;52.106;5.534;2023-11-19T04:35:37;12.10;99.90
18297;DHT22;18066;52.106;5.534;2023-11-19T04:38:04;12.10;99.90
18297;DHT22;18066;52.106;5.534;2023-11-19T04:40:31;12.10;99.90
18297;DHT22;18066;52.106;5.534;2023-11-19T04:42:59;12.10;99.90
18297;DHT22;18066;52.106;5.534;2023-11-19T04:45:27;12.10;99.90
18297;DHT22;18066;52.106;5.534;2023-11-19T04:47:54;12.10;99.90
18297;DHT22;18066;52.106;5.534;2023-11-19T04:50:20;12.00;99.90
18297;DHT22;18066;52.106;5.534;2023-11-19T04:52:47;12.00;99.90
18297;DHT22;18066;52.106;5.534;2023-11-19T04:55:14;12.10;99.90
18297;DHT22;18066;52.106;5.534;2023-11-19T04:57:40;11.90;99.90
18297;DHT22;18066;52.106;5.534;2023-11-19T05:00:09;12.00;99.90
18297;DHT22;18066;52.106;5.534;2023-11-19T05:02:38;11.90;99.90
18297;DHT22;18066;52.106;5.534;2023-11-19T05:05:05;12.00;99.90
18297;DHT22;18066;52.106;5.534;2023-11-19T05:07:32;12.00;99.90
18297;DHT22;18066;52.106;5.534;2023-11-19T05:09:58;12.00;99.90
18297;DHT22;18066;52.106;5.534;2023-11-19T05:12:25;11.90;99.90
18297;DHT22;18066;52.106;5.534;2023-11-19T05:14:52;11.90;99.90
18297;DHT22;18066;52.106;5.534;2023-11-19T05:17:19;11.90;99.90
18297;DHT22;18066;52.106;5.534;2023-11-19T05:19:47;11.90;99.90
18297;DHT22;18066;52.106;5.534;2023-11-19T05:22:14;11.90;99.90
18297;DHT22;18066;52.106;5.534;2023-11-19T05:24:41;11.90;99.90
18297;DHT22;18066;52.106;5.534;2023-11-19T05:27:08;11.80;99.90
18297;DHT22;18066;52.106;5.534;2023-11-19T05:29:36;11.90;99.90
18297;DHT22;18066;52.106;5.534;2023-11-19T05:32:04;11.90;99.90
18297;DHT22;18066;52.106;5.534;2023-11-19T05:34:32;11.90;99.90
18297;DHT22;18066;52.106;5.534;2023-11-19T05:37:00;11.90;99.90
18297;DHT22;18066;52.106;5.534;2023-11-19T05:39:28;11.90;99.90
18297;DHT22;18066;52.106;5.534;2023-11-19T05:41:55;11.70;99.90
18297;DHT22;18066;52.106;5.534;2023-11-19T05:44:21;11.80;99.90
18297;DHT22;18066;52.106;5.534;2023-11-19T05:46:48;11.90;99.90
18297;DHT22;18066;52.106;5.534;2023-11-19T05:49:15;11.80;99.90
18297;DHT22;18066;52.106;5.534;2023-11-19T05:51:41;11.80;99.90
18297;DHT22;18066;52.106;5.534;2023-11-19T05:54:10;11.70;99.90
18297;DHT22;18066;52.106;5.534;2023-11-19T05:56:36;11.80;99.90
18297;DHT22;18066;52.106;5.534;2023-11-19T05:59:03;11.90;99.90
18297;DHT22;18066;52.106;5.534;2023-11-19T06:01:34;11.70;99.90
18297;DHT22;18066;52.106;5.534;2023-11-19T06:04:02;11.80;99.90
18297;DHT22;18066;52.106;5.534;2023-11-19T06:06:29;11.70;99.90
18297;DHT22;18066;52.106;5.534;2023-11-19T06:08:55;11.70;99.90
18297;DHT22;18066;52.106;5.534;2023-11-19T06:11:23;11.70;99.90
18297;DHT22;18066;52.106;5.534;2023-11-19T06:13:52;11.70;99.90
18297;DHT22;18066;52.106;5.534;2023-11-19T06:16:19;11.70;99.90
18297;DHT22;18066;52.106;5.534;2023-11-19T06:18:46;11.70;99.90
18297;DHT22;18066;52.106;5.534;2023-11-19T06:21:13;11.70;99.90
18297;DHT22;18066;52.106;5.534;2023-11-19T06:23:40;11.80;99.90
18297;DHT22;18066;52.106;5.534;2023-11-19T06:26:07;11.70;99.90
18297;DHT22;18066;52.106;5.534;2023-11-19T06:28:37;11.70;99.90
18297;DHT22;18066;52.106;5.534;2023-11-19T06:31:04;11.60;99.90
18297;DHT22;18066;52.106;5.534;2023-11-19T06:33:31;11.60;99.90
18297;DHT22;18066;52.106;5.534;2023-11-19T06:35:59;11.60;99.90
18297;DHT22;18066;52.106;5.534;2023-11-19T06:38:26;11.60;99.90
18297;DHT22;18066;52.106;5.534;2023-11-19T06:40:52;11.60;99.90
18297;DHT22;18066;52.106;5.534;2023-11-19T06:43:19;11.60;99.90
18297;DHT22;18066;52.106;5.534;2023-11-19T06:45:48;11.60;99.90
18297;DHT22;18066;52.106;5.534;2023-11-19T06:48:15;11.60;99.90
18297;DHT22;18066;52.106;5.534;2023-11-19T06:50:42;11.50;99.90
18297;DHT22;18066;52.106;5.534;2023-11-19T06:53:09;11.60;99.90
18297;DHT22;18066;52.106;5.534;2023-11-19T06:55:37;11.60;99.90
18297;DHT22;18066;52.106;5.534;2023-11-19T06:58:05;11.50;99.90
18297;DHT22;18066;52.106;5.534;2023-11-19T07:00:32;11.60;99.90
18297;DHT22;18066;52.106;5.534;2023-11-19T07:03:02;11.60;99.90
18297;DHT22;18066;52.106;5.534;2023-11-19T07:05:31;11.50;99.90
18297;DHT22;18066;52.106;5.534;2023-11-19T07:07:58;11.50;99.90
18297;DHT22;18066;52.106;5.534;2023-11-19T07:10:26;11.40;99.90
18297;DHT22;18066;52.106;5.534;2023-11-19T07:12:54;11.50;99.90
18297;DHT22;18066;52.106;5.534;2023-11-19T07:15:21;11.40;99.90
18297;DHT22;18066;52.106;5.534;2023-11-19T07:17:48;11.60;99.90
18297;DHT22;18066;52.106;5.534;2023-11-19T07:20:17;11.60;99.90
18297;DHT22;18066;52.106;5.534;2023-11-19T07:22:44;11.60;99.90
18297;DHT22;18066;52.106;5.534;2023-11-19T07:25:12;11.60;99.90
18297;DHT22;18066;52.106;5.534;2023-11-19T07:27:39;11.60;99.90
18297;DHT22;18066;52.106;5.534;2023-11-19T07:30:08;11.70;99.90
18297;DHT22;18066;52.106;5.534;2023-11-19T07:32:35;11.70;99.90
18297;DHT22;18066;52.106;5.534;2023-11-19T07:35:05;11.70;99.90
18297;DHT22;18066;52.106;5.534;2023-11-19T07:37:33;11.70;99.90
18297;DHT22;18066;52.106;5.534;2023-11-19T07:40:00;11.70;99.90
18297;DHT22;18066;52.106;5.534;2023-11-19T07:42:27;11.70;99.90
18297;DHT22;18066;52.106;5.534;2023-11-19T07:44:54;11.70;99.90
18297;DHT22;18066;52.106;5.534;2023-11-19T07:47:22;11.70;99.90
18297;DHT22;18066;52.106;5.534;2023-11-19T07:49:50;11.60;99.90
18297;DHT22;18066;52.106;5.534;2023-11-19T07:52:17;11.70;99.90
18297;DHT22;18066;52.106;5.534;2023-11-19T07:54:45;11.70;99.90
18297;DHT22;18066;52.106;5.534;2023-11-19T07:57:11;11.80;99.90
18297;DHT22;18066;52.106;5.534;2023-11-19T07:59:38;11.80;99.90
18297;DHT22;18066;52.106;5.534;2023-11-19T08:02:05;11.70;99.90
18297;DHT22;18066;52.106;5.534;2023-11-19T08:04:32;11.90;99.90
18297;DHT22;18066;52.106;5.534;2023-11-19T08:06:59;11.70;99.90
18297;DHT22;18066;52.106;5.534;2023-11-19T08:09:26;11.80;99.90
18297;DHT22;18066;52.106;5.534;2023-11-19T08:11:54;11.90;99.90
18297;DHT22;18066;52.106;5.534;2023-11-19T08:14:21;11.90;99.90
18297;DHT22;18066;52.106;5.534;2023-11-19T08:16:48;12.00;99.90
18297;DHT22;18066;52.106;5.534;2023-11-19T08:19:15;12.00;99.90
18297;DHT22;18066;52.106;5.534;2023-11-19T08:21:42;12.10;99.90
18297;DHT22;18066;52.106;5.534;2023-11-19T08:24:09;12.10;99.90
18297;DHT22;18066;52.106;5.534;2023-11-19T08:26:36;12.00;99.90
18297;DHT22;18066;52.106;5.534;2023-11-19T08:29:04;12.10;99.90
18297;DHT22;18066;52.106;5.534;2023-11-19T08:31:30;12.10;99.90
18297;DHT22;18066;52.106;5.534;2023-11-19T08:33:57;12.00;99.90
18297;DHT22;18066;52.106;5.534;2023-11-19T08:36:24;12.10;99.90
18297;DHT22;18066;52.106;5.534;2023-11-19T08:38:51;12.00;99.90
18297;DHT22;18066;52.106;5.534;2023-11-19T08:41:18;12.10;99.90
18297;DHT22;18066;52.106;5.534;2023-11-19T08:43:45;12.10;99.90
18297;DHT22;18066;52.106;5.534;2023-11-19T08:46:13;12.10;99.90
18297;DHT22;18066;52.106;5.534;2023-11-19T08:48:40;12.20;99.90
18297;DHT22;18066;52.106;5.534;2023-11-19T08:51:07;12.20;99.90
18297;DHT22;18066;52.106;5.534;2023-11-19T08:53:33;12.20;99.90
18297;DHT22;18066;52.106;5.534;2023-11-19T08:56:00;12.20;99.90
18297;DHT22;18066;52.106;5.534;2023-11-19T08:58:28;12.20;99.90
18297;DHT22;18066;52.106;5.534;2023-11-19T09:00:55;12.30;99.90
18297;DHT22;18066;52.106;5.534;2023-11-19T09:03:23;12.40;99.90
18297;DHT22;18066;52.106;5.534;2023-11-19T09:05:51;12.40;99.90
18297;DHT22;18066;52.106;5.534;2023-11-19T09:08:18;12.40;99.90
18297;DHT22;18066;52.106;5.534;2023-11-19T09:10:45;12.50;99.90
18297;DHT22;18066;52.106;5.534;2023-11-19T09:13:12;12.50;99.90
18297;DHT22;18066;52.106;5.534;2023-11-19T09:15:39;12.50;99.90
18297;DHT22;18066;52.106;5.534;2023-11-19T09:18:05;12.60;99.90
18297;DHT22;18066;52.106;5.534;2023-11-19T09:20:34;12.60;99.90
18297;DHT22;18066;52.106;5.534;2023-11-19T09:23:04;12.60;99.90
18297;DHT22;18066;52.106;5.534;2023-11-19T09:25:31;12.60;99.90
18297;DHT22;18066;52.106;5.534;2023-11-19T09:27:57;12.70;99.90
18297;DHT22;18066;52.106;5.534;2023-11-19T09:30:24;12.80;99.90
18297;DHT22;18066;52.106;5.534;2023-11-19T09:32:51;12.80;99.90
18297;DHT22;18066;52.106;5.534;2023-11-19T09:35:18;12.70;99.90
18297;DHT22;18066;52.106;5.534;2023-11-19T09:37:46;12.60;99.90
18297;DHT22;18066;52.106;5.534;2023-11-19T09:40:13;12.60;99.90
18297;DHT22;18066;52.106;5.534;2023-11-19T09:42:43;12.70;99.90
18297;DHT22;18066;52.106;5.534;2023-11-19T09:45:14;12.70;99.90
18297;DHT22;18066;52.106;5.534;2023-11-19T09:47:43;12.60;99.90
18297;DHT22;18066;52.106;5.534;2023-11-19T09:50:15;12.60;99.90
18297;DHT22;18066;52.106;5.534;2023-11-19T09:52:43;12.70;99.90
18297;DHT22;18066;52.106;5.534;2023-11-19T09:55:12;12.80;99.90
18297;DHT22;18066;52.106;5.534;2023-11-19T09:57:39;12.80;99.90
18297;DHT22;18066;52.106;5.534;2023-11-19T10:00:07;12.90;99.90
18297;DHT22;18066;52.106;5.534;2023-11-19T10:02:36;12.90;99.90
18297;DHT22;18066;52.106;5.534;2023-11-19T10:05:06;12.90;99.90
18297;DHT22;18066;52.106;5.534;2023-11-19T10:07:33;12.90;99.90
18297;DHT22;18066;52.106;5.534;2023-11-19T10:10:00;12.90;99.90
18297;DHT22;18066;52.106;5.534;2023-11-19T10:12:31;12.90;99.90
18297;DHT22;18066;52.106;5.534;2023-11-19T10:14:58;13.00;99.90
18297;DHT22;18066;52.106;5.534;2023-11-19T10:17:28;13.10;99.90
18297;DHT22;18066;52.106;5.534;2023-11-19T10:19:55;13.10;99.90
18297;DHT22;18066;52.106;5.534;2023-11-19T10:22:23;13.30;99.90
18297;DHT22;18066;52.106;5.534;2023-11-19T10:24:49;13.40;99.90
18297;DHT22;18066;52.106;5.534;2023-11-19T10:27:17;13.50;99.90
18297;DHT22;18066;52.106;5.534;2023-11-19T10:29:46;13.40;99.90
18297;DHT22;18066;52.106;5.534;2023-11-19T10:32:13;13.50;99.90
18297;DHT22;18066;52.106;5.534;2023-11-19T10:34:40;13.40;99.90
18297;DHT22;18066;52.106;5.534;2023-11-19T10:37:08;13.50;99.90
18297;DHT22;18066;52.106;5.534;2023-11-19T10:39:52;13.60;99.90
18297;DHT22;18066;52.106;5.534;2023-11-19T10:42:20;13.70;99.90
18297;DHT22;18066;52.106;5.534;2023-11-19T10:44:48;13.60;99.90
18297;DHT22;18066;52.106;5.534;2023-11-19T10:47:15;13.50;99.90
18297;DHT22;18066;52.106;5.534;2023-11-19T10:49:45;13.50;99.90
18297;DHT22;18066;52.106;5.534;2023-11-19T10:52:14;13.60;99.90
18297;DHT22;18066;52.106;5.534;2023-11-19T10:54:44;13.60;99.90
18297;DHT22;18066;52.106;5.534;2023-11-19T10:57:17;13.70;99.90
18297;DHT22;18066;52.106;5.534;2023-11-19T10:59:47;13.70;99.90
18297;DHT22;18066;52.106;5.534;2023-11-19T11:02:22;13.70;99.90
18297;DHT22;18066;52.106;5.534;2023-11-19T11:04:51;13.70;99.90
18297;DHT22;18066;52.106;5.534;2023-11-19T11:07:19;13.70;99.90
18297;DHT22;18066;52.106;5.534;2023-11-19T11:09:47;13.80;99.90
18297;DHT22;18066;52.106;5.534;2023-11-19T11:12:15;13.80;99.90
18297;DHT22;18066;52.106;5.534;2023-11-19T11:14:44;13.80;99.90
18297;DHT22;18066;52.106;5.534;2023-11-19T11:17:17;13.80;99.90
18297;DHT22;18066;52.106;5.534;2023-11-19T11:19:44;13.70;99.90
18297;DHT22;18066;52.106;5.534;2023-11-19T11:22:14;13.70;99.90
18297;DHT22;18066;52.106;5.534;2023-11-19T11:25:06;13.70;99.90
18297;DHT22;18066;52.106;5.534;2023-11-19T11:28:13;13.80;99.90
18297;DHT22;18066;52.106;5.534;2023-11-19T11:30:55;13.70;99.90
18297;DHT22;18066;52.106;5.534;2023-11-19T11:33:36;13.60;99.90
18297;DHT22;18066;52.106;5.534;2023-11-19T11:36:13;13.60;99.90
18297;DHT22;18066;52.106;5.534;2023-11-19T11:38:43;13.70;99.90
18297;DHT22;18066;52.106;5.534;2023-11-19T11:41:17;13.70;99.90
18297;DHT22;18066;52.106;5.534;2023-11-19T11:43:46;13.80;99.90
18297;DHT22;18066;52.106;5.534;2023-11-19T11:49:28;13.80;99.90
18297;DHT22;18066;52.106;5.534;2023-11-19T11:52:03;13.70;99.90
18297;DHT22;18066;52.106;5.534;2023-11-19T11:54:31;13.70;99.90
18297;DHT22;18066;52.106;5.534;2023-11-19T11:57:15;13.70;99.90
18297;DHT22;18066;52.106;5.534;2023-11-19T11:59:46;13.70;99.90
18297;DHT22;18066;52.106;5.534;2023-11-19T12:02:15;13.70;99.90
18297;DHT22;18066;52.106;5.534;2023-11-19T12:04:47;13.80;99.90
18297;DHT22;18066;52.106;5.534;2023-11-19T12:07:16;13.80;99.90
18297;DHT22;18066;52.106;5.534;2023-11-19T12:09:48;13.80;99.90
18297;DHT22;18066;52.106;5.534;2023-11-19T12:12:21;13.80;99.90
18297;DHT22;18066;52.106;5.534;2023-11-19T12:15:06;13.80;99.90
18297;DHT22;18066;52.106;5.534;2023-11-19T12:17:46;13.70;99.90
18297;DHT22;18066;52.106;5.534;2023-11-19T12:20:16;13.70;99.90
18297;DHT22;18066;52.106;5.534;2023-11-19T12:22:45;13.60;99.90
18297;DHT22;18066;52.106;5.534;2023-11-19T12:25:13;13.80;99.90
18297;DHT22;18066;52.106;5.534;2023-11-19T12:27:41;13.80;99.90
18297;DHT22;18066;52.106;5.534;2023-11-19T12:30:08;13.80;99.90
18297;DHT22;18066;52.106;5.534;2023-11-19T12:32:39;13.70;99.90
18297;DHT22;18066;52.106;5.534;2023-11-19T12:35:07;13.60;99.90
18297;DHT22;18066;52.106;5.534;2023-11-19T12:37:41;13.60;99.90
18297;DHT22;18066;52.106;5.534;2023-11-19T12:40:12;13.70;99.90
18297;DHT22;18066;52.106;5.534;2023-11-19T12:42:40;13.60;99.90
18297;DHT22;18066;52.106;5.534;2023-11-19T12:45:07;13.70;99.90
18297;DHT22;18066;52.106;5.534;2023-11-19T12:47:36;13.60;99.90
18297;DHT22;18066;52.106;5.534;2023-11-19T12:50:03;13.60;99.90
18297;DHT22;18066;52.106;5.534;2023-11-19T12:52:30;13.70;99.90
18297;DHT22;18066;52.106;5.534;2023-11-19T12:54:58;13.70;99.90
18297;DHT22;18066;52.106;5.534;2023-11-19T12:57:36;13.80;99.90
18297;DHT22;18066;52.106;5.534;2023-11-19T13:00:04;13.80;99.90
18297;DHT22;18066;52.106;5.534;2023-11-19T13:02:47;13.80;99.90
18297;DHT22;18066;52.106;5.534;2023-11-19T13:05:25;13.70;99.90
18297;DHT22;18066;52.106;5.534;2023-11-19T13:07:58;13.80;99.90
18297;DHT22;18066;52.106;5.534;2023-11-19T13:10:27;13.80;99.90
18297;DHT22;18066;52.106;5.534;2023-11-19T13:13:02;13.70;99.90
18297;DHT22;18066;52.106;5.534;2023-11-19T13:15:29;13.70;99.90
18297;DHT22;18066;52.106;5.534;2023-11-19T13:17:56;13.60;99.90
18297;DHT22;18066;52.106;5.534;2023-11-19T13:20:23;13.60;99.90
18297;DHT22;18066;52.106;5.534;2023-11-19T13:22:57;13.60;99.90
18297;DHT22;18066;52.106;5.534;2023-11-19T13:25:25;13.60;99.90
18297;DHT22;18066;52.106;5.534;2023-11-19T13:27:54;13.50;99.90
18297;DHT22;18066;52.106;5.534;2023-11-19T13:30:21;13.50;99.90
18297;DHT22;18066;52.106;5.534;2023-11-19T13:32:48;13.50;99.90
18297;DHT22;18066;52.106;5.534;2023-11-19T13:35:16;13.50;99.90
18297;DHT22;18066;52.106;5.534;2023-11-19T13:37:44;13.40;99.90
18297;DHT22;18066;52.106;5.534;2023-11-19T13:40:11;13.40;99.90
18297;DHT22;18066;52.106;5.534;2023-11-19T13:42:39;13.30;99.90
18297;DHT22;18066;52.106;5.534;2023-11-19T13:45:10;13.30;99.90
18297;DHT22;18066;52.106;5.534;2023-11-19T13:47:38;13.30;99.90
18297;DHT22;18066;52.106;5.534;2023-11-19T13:50:08;13.30;99.90
18297;DHT22;18066;52.106;5.534;2023-11-19T13:52:36;13.20;99.90
18297;DHT22;18066;52.106;5.534;2023-11-19T13:55:04;13.20;99.90
18297;DHT22;18066;52.106;5.534;2023-11-19T13:57:31;13.20;99.90
18297;DHT22;18066;52.106;5.534;2023-11-19T13:59:59;13.10;99.90
18297;DHT22;18066;52.106;5.534;2023-11-19T14:02:28;13.10;99.90
18297;DHT22;18066;52.106;5.534;2023-11-19T14:04:55;13.00;99.90
18297;DHT22;18066;52.106;5.534;2023-11-19T14:07:24;13.00;99.90
18297;DHT22;18066;52.106;5.534;2023-11-19T14:09:51;12.90;99.90
18297;DHT22;18066;52.106;5.534;2023-11-19T14:12:18;12.90;99.90
18297;DHT22;18066;52.106;5.534;2023-11-19T14:14:45;12.80;99.90
18297;DHT22;18066;52.106;5.534;2023-11-19T14:17:12;12.90;99.90
18297;DHT22;18066;52.106;5.534;2023-11-19T14:19:42;12.90;99.90
18297;DHT22;18066;52.106;5.534;2023-11-19T14:22:09;12.90;99.90
18297;DHT22;18066;52.106;5.534;2023-11-19T14:24:36;12.90;99.90
18297;DHT22;18066;52.106;5.534;2023-11-19T14:27:04;12.90;99.90
18297;DHT22;18066;52.106;5.534;2023-11-19T14:29:31;12.90;99.90
18297;DHT22;18066;52.106;5.534;2023-11-19T14:31:58;12.80;99.90
18297;DHT22;18066;52.106;5.534;2023-11-19T14:34:25;12.90;99.90
18297;DHT22;18066;52.106;5.534;2023-11-19T14:36:54;12.90;99.90
18297;DHT22;18066;52.106;5.534;2023-11-19T14:39:21;12.90;99.90
18297;DHT22;18066;52.106;5.534;2023-11-19T14:41:47;12.70;99.90
18297;DHT22;18066;52.106;5.534;2023-11-19T14:44:15;12.70;99.90
18297;DHT22;18066;52.106;5.534;2023-11-19T14:46:41;12.70;99.90
18297;DHT22;18066;52.106;5.534;2023-11-19T14:49:08;12.80;99.90
18297;DHT22;18066;52.106;5.534;2023-11-19T14:51:36;12.80;99.90
18297;DHT22;18066;52.106;5.534;2023-11-19T14:54:05;12.80;99.90
18297;DHT22;18066;52.106;5.534;2023-11-19T14:56:32;12.80;99.90
18297;DHT22;18066;52.106;5.534;2023-11-19T14:58:59;12.80;99.90
18297;DHT22;18066;52.106;5.534;2023-11-19T15:01:26;12.80;99.90
18297;DHT22;18066;52.106;5.534;2023-11-19T15:03:54;12.90;99.90
18297;DHT22;18066;52.106;5.534;2023-11-19T15:06:23;12.80;99.90
18297;DHT22;18066;52.106;5.534;2023-11-19T15:08:50;12.80;99.90
18297;DHT22;18066;52.106;5.534;2023-11-19T15:11:19;12.80;99.90
18297;DHT22;18066;52.106;5.534;2023-11-19T15:13:46;13.00;99.90
18297;DHT22;18066;52.106;5.534;2023-11-19T15:16:14;12.70;99.90
18297;DHT22;18066;52.106;5.534;2023-11-19T15:18:47;12.90;99.90
18297;DHT22;18066;52.106;5.534;2023-11-19T15:21:14;12.90;99.90
18297;DHT22;18066;52.106;5.534;2023-11-19T15:23:41;12.90;99.90
18297;DHT22;18066;52.106;5.534;2023-11-19T15:26:08;12.80;99.90
18297;DHT22;18066;52.106;5.534;2023-11-19T15:28:38;12.90;99.90
18297;DHT22;18066;52.106;5.534;2023-11-19T15:31:04;12.90;99.90
18297;DHT22;18066;52.106;5.534;2023-11-19T15:33:32;12.80;99.90
18297;DHT22;18066;52.106;5.534;2023-11-19T15:35:59;12.90;99.90
18297;DHT22;18066;52.106;5.534;2023-11-19T15:38:27;12.90;99.90
18297;DHT22;18066;52.106;5.534;2023-11-19T15:40:54;13.00;99.90